createdAt,value
2022-12-19T07:14:10.850Z,33.02
2022-12-19T07:16:40.119Z,32.83
2022-12-19T07:19:14.289Z,32.39
2022-12-19T07:21:45.672Z,32.17
2022-12-19T07:24:17.160Z,31.62
2022-12-19T07:26:48.662Z,31.84
2022-12-19T07:29:20.082Z,31.54
2022-12-19T07:31:50.313Z,31.70
2022-12-19T07:34:21.916Z,31.80
2022-12-19T07:36:56.385Z,32.24
2022-12-19T07:39:27.557Z,32.38
2022-12-19T07:42:03.565Z,32.68
2022-12-19T07:44:45.125Z,32.20
2022-12-19T07:47:16.672Z,32.36
2022-12-19T07:49:47.391Z,32.70
2022-12-19T07:52:20.425Z,32.43
2022-12-19T07:54:51.209Z,33.04
2022-12-19T07:57:20.507Z,32.80
2022-12-19T07:59:56.446Z,33.02
2022-12-19T08:02:27.928Z,32.95
2022-12-19T08:05:01.994Z,33.10
2022-12-19T08:07:38.780Z,33.35
2022-12-19T08:10:13.394Z,33.20
2022-12-19T08:12:46.795Z,33.51
2022-12-19T08:15:23.427Z,33.59
2022-12-19T08:17:53.656Z,33.52
2022-12-19T08:20:27.945Z,33.72
2022-12-19T08:23:06.446Z,33.87
2022-12-19T08:25:39.836Z,33.73
2022-12-19T08:28:10.585Z,33.66
2022-12-19T08:30:41.636Z,33.69
2022-12-19T08:33:12.372Z,33.88
2022-12-19T08:35:44.582Z,33.62
2022-12-19T08:38:15.686Z,33.84
2022-12-19T08:40:54.571Z,33.87
2022-12-19T08:43:34.255Z,33.80
2022-12-19T08:46:02.313Z,34.12
2022-12-19T08:48:31.845Z,33.68
2022-12-19T08:51:07.581Z,33.88
2022-12-19T08:53:42.561Z,33.68
2022-12-19T08:56:19.743Z,34.13
2022-12-19T08:58:53.970Z,34.28
2022-12-19T09:01:26.273Z,34.01
2022-12-19T09:05:40.038Z,34.19
2022-12-19T09:07:00.754Z,34.26
2022-12-19T09:09:34.731Z,33.80
2022-12-19T09:12:08.027Z,33.76
2022-12-19T09:14:41.150Z,33.82
2022-12-19T09:17:12.134Z,33.80
2022-12-19T09:19:48.187Z,33.80
2022-12-19T09:22:21.786Z,33.89
2022-12-19T09:24:59.445Z,33.65
2022-12-19T09:27:47.445Z,33.60
2022-12-19T09:30:20.909Z,33.66
2022-12-19T09:32:54.478Z,33.81
2022-12-19T09:35:30.483Z,33.64
2022-12-19T09:38:04.212Z,33.70
2022-12-19T09:41:03.944Z,33.58
2022-12-19T09:44:19.273Z,33.44
2022-12-19T09:47:13.510Z,33.73
2022-12-19T09:49:45.179Z,33.63
2022-12-19T09:52:21.803Z,33.49
2022-12-19T09:55:21.697Z,33.41
2022-12-19T09:57:58.084Z,33.59
2022-12-19T10:00:38.440Z,33.64
2022-12-19T10:03:39.758Z,33.86
2022-12-19T10:07:08.807Z,33.81
2022-12-19T10:10:28.424Z,33.92
2022-12-19T10:12:51.392Z,33.97
2022-12-19T10:15:29.277Z,33.83
2022-12-19T10:18:31.275Z,34.04
2022-12-19T10:21:59.036Z,34.15
2022-12-19T10:24:56.684Z,33.84
2022-12-19T10:27:59.731Z,33.95
2022-12-19T10:30:45.443Z,34.03
2022-12-19T10:33:29.503Z,33.87
2022-12-19T10:36:03.202Z,34.06
2022-12-19T10:38:38.915Z,34.15
2022-12-19T10:41:25.947Z,34.17
2022-12-19T10:44:10.854Z,33.99
2022-12-19T10:46:55.371Z,34.36
2022-12-19T10:49:39.120Z,34.17
2022-12-19T10:52:16.485Z,33.98
2022-12-19T10:54:49.547Z,34.13
2022-12-19T10:57:23.182Z,33.98
2022-12-19T11:00:14.645Z,34.15
2022-12-19T11:03:04.670Z,33.91
2022-12-19T11:05:38.960Z,33.82
2022-12-19T11:08:19.811Z,34.20
2022-12-19T11:12:28.449Z,33.97
2022-12-19T11:16:42.570Z,33.95
2022-12-19T11:29:15.666Z,34.13
2022-12-19T11:29:44.791Z,33.89
2022-12-19T11:29:54.826Z,34.02
2022-12-19T11:30:46.766Z,34.02
2022-12-19T11:32:51.759Z,34.04
2022-12-19T11:35:37.155Z,33.91
2022-12-19T11:38:17.723Z,33.76
2022-12-19T11:41:03.001Z,33.45
2022-12-19T11:44:02.430Z,33.28
2022-12-19T11:46:57.922Z,33.05
2022-12-19T11:49:46.235Z,33.14
2022-12-19T11:55:56.108Z,33.26
2022-12-19T11:58:30.334Z,33.17
2022-12-19T12:01:39.843Z,33.31
2022-12-19T12:04:18.190Z,33.58
2022-12-19T12:06:56.535Z,33.48
2022-12-19T12:14:47.240Z,33.64
2022-12-19T12:22:53.480Z,33.67
2022-12-19T12:29:25.595Z,33.46
2022-12-19T12:31:18.923Z,33.40
2022-12-19T12:31:47.569Z,33.19
2022-12-19T12:31:50.281Z,33.50
2022-12-19T12:35:16.247Z,33.17
2022-12-19T12:35:16.430Z,33.60
2022-12-19T12:39:25.475Z,33.43
2022-12-19T12:42:07.236Z,33.56
2022-12-19T12:44:47.995Z,33.51
2022-12-19T12:47:30.698Z,33.21
2022-12-19T12:50:18.949Z,33.34
2022-12-19T12:52:54.993Z,33.46
2022-12-19T12:55:42.926Z,33.82
2022-12-19T12:58:54.681Z,33.78
2022-12-19T13:01:40.647Z,33.35
2022-12-19T13:04:11.909Z,33.54
2022-12-19T13:07:13.205Z,33.47
2022-12-19T13:09:47.907Z,32.98
2022-12-19T13:12:47.578Z,33.19
2022-12-19T13:15:41.656Z,32.96
2022-12-19T13:18:36.271Z,33.24
2022-12-19T13:21:10.017Z,33.29
2022-12-19T13:23:40.665Z,33.25
2022-12-19T13:26:45.638Z,33.49
2022-12-19T13:29:56.803Z,33.56
2022-12-19T13:32:32.839Z,33.55
2022-12-19T13:36:25.215Z,33.46
2022-12-19T13:40:01.729Z,33.40
2022-12-19T13:41:49.244Z,33.39
2022-12-19T13:44:22.974Z,33.59
2022-12-19T13:46:54.370Z,33.32
2022-12-19T13:49:36.786Z,33.17
2022-12-19T13:52:17.507Z,33.22
2022-12-19T13:54:59.809Z,33.13
2022-12-19T13:57:31.549Z,33.38
2022-12-19T14:00:10.157Z,33.39
2022-12-19T14:02:53.165Z,33.63
2022-12-19T14:06:17.831Z,33.79
2022-12-19T14:08:24.967Z,33.71
2022-12-19T14:11:35.002Z,33.94
2022-12-19T14:14:27.450Z,34.05
2022-12-19T14:17:12.915Z,33.70
2022-12-19T14:20:06.691Z,33.90
2022-12-19T14:22:45.472Z,34.23
2022-12-19T14:28:15.282Z,33.58
2022-12-19T14:28:29.557Z,32.14
2022-12-19T14:31:05.493Z,31.04
2022-12-19T14:34:04.299Z,30.90
2022-12-19T14:36:43.952Z,31.49
2022-12-19T14:39:29.300Z,30.72
2022-12-19T14:43:55.807Z,30.71
2022-12-19T14:54:01.798Z,30.45
2022-12-19T14:54:03.915Z,30.43
2022-12-19T14:54:40.197Z,30.85
2022-12-19T14:58:51.509Z,32.28
2022-12-19T15:01:07.375Z,31.84
2022-12-19T15:03:36.096Z,31.76
2022-12-19T15:07:05.719Z,30.51
2022-12-19T15:11:00.712Z,31.08
2022-12-19T15:13:13.067Z,30.65
2022-12-19T15:15:37.681Z,30.41
2022-12-19T15:18:39.350Z,26.26
2022-12-19T15:21:13.194Z,27.57
2022-12-19T15:23:45.067Z,29.39
2022-12-19T15:26:20.526Z,29.36
2022-12-19T15:28:56.313Z,29.66
2022-12-19T15:31:38.964Z,30.00
2022-12-19T15:34:34.702Z,29.86
2022-12-19T15:37:07.330Z,29.05
2022-12-19T15:39:38.864Z,28.36
2022-12-19T15:42:18.987Z,27.09
2022-12-19T15:44:56.760Z,27.01
2022-12-19T15:47:37.670Z,26.72
2022-12-19T15:50:28.426Z,28.67
2022-12-19T15:52:58.998Z,28.75
2022-12-19T15:55:36.614Z,29.25
2022-12-19T15:58:12.464Z,30.28
2022-12-19T16:00:50.723Z,31.00
2022-12-19T16:03:27.284Z,31.47
2022-12-19T16:06:03.411Z,31.60
2022-12-19T16:08:31.755Z,32.35
2022-12-19T16:11:02.602Z,32.41
2022-12-19T16:13:40.430Z,32.50
2022-12-19T16:16:16.004Z,32.73
2022-12-19T16:18:47.559Z,32.98
2022-12-19T16:21:26.111Z,33.31
2022-12-19T16:24:07.887Z,33.84
2022-12-19T16:26:40.690Z,33.81
2022-12-19T16:29:29.258Z,33.95
2022-12-19T16:32:08.349Z,34.11
2022-12-19T16:34:47.718Z,34.26
2022-12-19T16:37:32.060Z,34.10
2022-12-19T16:40:08.219Z,34.26
2022-12-19T16:42:39.558Z,34.44
2022-12-19T16:45:28.972Z,34.31
2022-12-19T16:48:16.876Z,34.69
2022-12-19T16:50:55.033Z,34.48
2022-12-19T16:53:30.871Z,34.43
2022-12-19T16:56:04.800Z,34.45
2022-12-19T16:58:43.267Z,34.53
2022-12-19T17:01:15.509Z,34.59
2022-12-19T17:03:48.048Z,34.64
2022-12-19T17:06:18.536Z,34.59
2022-12-19T17:08:46.604Z,35.08
2022-12-19T17:11:17.994Z,34.46
2022-12-19T17:13:56.142Z,34.59
2022-12-19T17:16:26.150Z,34.45
2022-12-19T17:19:01.150Z,34.48
2022-12-19T17:21:29.071Z,34.55
2022-12-19T17:23:59.631Z,34.89
2022-12-19T17:26:27.558Z,34.62
2022-12-19T17:29:00.593Z,34.50
2022-12-19T17:31:38.180Z,34.83
2022-12-19T17:34:17.570Z,34.95
2022-12-19T17:36:45.822Z,34.82
2022-12-19T17:39:26.559Z,34.90
2022-12-19T17:42:17.196Z,34.86
2022-12-19T17:44:45.268Z,35.02
2022-12-19T17:47:17.308Z,34.64
2022-12-19T17:49:48.608Z,34.75
2022-12-19T17:52:22.633Z,34.74
2022-12-19T17:54:52.913Z,34.72
2022-12-19T17:57:37.313Z,34.48
2022-12-19T18:00:11.592Z,34.40
2022-12-19T18:02:53.110Z,34.68
2022-12-19T18:05:30.871Z,34.81
2022-12-19T18:08:24.837Z,34.72
2022-12-19T18:11:09.005Z,34.68
2022-12-19T18:13:40.273Z,34.89
2022-12-19T18:16:24.687Z,34.69
2022-12-19T18:19:00.422Z,34.67
2022-12-19T18:21:36.199Z,34.95
2022-12-19T18:24:10.781Z,35.04
2022-12-19T18:26:49.595Z,34.79
2022-12-19T18:29:22.929Z,35.01
2022-12-19T18:32:01.860Z,35.05
2022-12-19T18:34:38.286Z,34.86
2022-12-19T18:37:28.436Z,34.77
2022-12-19T18:40:04.144Z,34.91
2022-12-19T18:42:39.867Z,34.85
2022-12-19T18:45:23.156Z,34.43
2022-12-19T18:48:00.411Z,34.74
2022-12-19T18:50:33.693Z,34.52
2022-12-19T18:53:21.815Z,34.44
2022-12-19T18:56:00.111Z,34.68
2022-12-19T18:58:36.173Z,34.74
2022-12-19T19:01:13.676Z,34.41
2022-12-19T19:03:53.234Z,34.36
2022-12-19T19:06:38.423Z,34.31
2022-12-19T19:09:20.348Z,34.68
2022-12-19T19:12:13.704Z,34.46
2022-12-19T19:14:43.514Z,34.27
2022-12-19T19:17:30.552Z,34.38
2022-12-19T19:20:04.202Z,34.31
2022-12-19T19:22:36.987Z,34.29
2022-12-19T19:25:10.630Z,34.07
2022-12-19T19:27:44.913Z,34.16
2022-12-19T19:30:18.368Z,34.36
2022-12-19T19:32:59.174Z,34.25
2022-12-19T19:35:38.078Z,34.38
2022-12-19T19:38:14.836Z,34.12
2022-12-19T19:40:51.170Z,34.31
2022-12-19T19:43:23.252Z,34.28
2022-12-19T19:46:06.826Z,34.07
2022-12-19T19:48:42.656Z,34.22
2022-12-19T19:51:19.821Z,34.30
2022-12-19T19:54:01.802Z,34.12
2022-12-19T19:56:40.666Z,33.93
2022-12-19T19:59:18.713Z,34.35
2022-12-19T20:01:56.799Z,34.17
2022-12-19T20:04:38.376Z,34.31
2022-12-19T20:07:17.675Z,34.49
2022-12-19T20:09:54.662Z,34.14
2022-12-19T20:12:24.763Z,34.31
2022-12-19T20:15:03.136Z,34.11
2022-12-19T20:17:41.594Z,34.16
2022-12-19T20:20:19.660Z,34.15
2022-12-19T20:22:54.964Z,34.20
2022-12-19T20:25:34.599Z,34.34
2022-12-19T20:28:19.198Z,34.51
2022-12-19T20:30:54.293Z,34.19
2022-12-19T20:33:26.344Z,34.12
2022-12-19T20:36:09.998Z,33.96
2022-12-19T20:38:45.740Z,34.09
2022-12-19T20:41:13.963Z,34.07
2022-12-19T20:43:53.317Z,34.14
2022-12-19T20:46:32.139Z,34.41
2022-12-19T20:49:08.317Z,34.02
2022-12-19T20:51:47.941Z,33.94
2022-12-19T20:54:24.173Z,34.08
2022-12-19T20:57:00.619Z,33.89
2022-12-19T20:59:36.718Z,33.95
2022-12-19T21:02:12.553Z,33.92
2022-12-19T21:04:48.457Z,34.09
2022-12-19T21:07:27.421Z,34.30
2022-12-19T21:09:59.862Z,34.11
2022-12-19T21:12:35.336Z,34.20
2022-12-19T21:15:08.197Z,34.28
2022-12-19T21:17:42.381Z,34.23
2022-12-19T21:20:17.828Z,34.31
2022-12-19T21:22:50.656Z,34.15
2022-12-19T21:25:26.666Z,34.22
2022-12-19T21:28:00.543Z,34.17
2022-12-19T21:30:38.774Z,34.17
2022-12-19T21:33:11.679Z,33.89
2022-12-19T21:35:46.134Z,34.29
2022-12-19T21:38:23.340Z,33.85
2022-12-19T21:40:55.851Z,34.14
2022-12-19T21:43:28.657Z,33.88
2022-12-19T21:46:33.339Z,34.07
2022-12-19T21:49:08.663Z,33.87
2022-12-19T21:51:39.348Z,34.07
2022-12-19T21:54:21.130Z,33.72
2022-12-19T21:56:57.026Z,33.96
2022-12-19T21:59:41.263Z,34.09
2022-12-19T22:02:20.872Z,34.02
2022-12-19T22:04:58.983Z,34.04
2022-12-19T22:07:32.127Z,33.91
2022-12-19T22:10:11.815Z,33.55
2022-12-19T22:12:47.405Z,33.46
2022-12-19T22:15:19.869Z,33.45
2022-12-19T22:17:55.829Z,32.92
2022-12-19T22:20:31.440Z,32.40
2022-12-19T22:23:09.719Z,32.42
2022-12-19T22:25:51.097Z,32.30
2022-12-19T22:28:27.434Z,32.23
2022-12-19T22:31:00.547Z,32.21
2022-12-19T22:33:35.700Z,32.14
2022-12-19T22:36:15.388Z,31.86
2022-12-19T22:39:13.352Z,31.90
2022-12-19T22:41:52.051Z,31.72
2022-12-19T22:44:30.495Z,31.50
2022-12-19T22:47:03.500Z,31.62
2022-12-19T22:49:45.929Z,31.65
2022-12-19T22:52:26.908Z,32.00
2022-12-19T22:55:08.780Z,31.83
2022-12-19T22:57:46.477Z,32.33
2022-12-19T23:00:21.972Z,32.49
2022-12-19T23:03:03.809Z,32.39
2022-12-19T23:05:40.899Z,32.57
2022-12-19T23:08:21.631Z,32.47
2022-12-19T23:10:56.473Z,32.76
2022-12-19T23:13:37.347Z,32.17
2022-12-19T23:16:13.875Z,32.29
2022-12-19T23:18:47.178Z,32.01
2022-12-19T23:21:27.161Z,31.83
2022-12-19T23:24:08.728Z,31.64
2022-12-19T23:26:42.405Z,31.97
2022-12-19T23:29:20.377Z,32.14
2022-12-19T23:31:57.891Z,32.06
2022-12-19T23:34:30.902Z,32.10
2022-12-19T23:37:11.523Z,31.85
2022-12-19T23:39:52.017Z,31.98
2022-12-19T23:42:30.596Z,31.47
2022-12-19T23:45:04.575Z,31.39
2022-12-19T23:47:42.003Z,31.38
2022-12-19T23:50:17.895Z,31.84
2022-12-19T23:52:53.792Z,31.58
2022-12-19T23:55:30.683Z,31.78
2022-12-19T23:58:11.246Z,31.71
